ZWWW/URC METAR and TAF weather

Enter ICAO airport designator
Station Type Date Time Source
ZWWW METAR 2021/07/26 16:00 UTC NOAA

ZWWW 261600Z 20003MPS 160V220 CAVOK 31/06 Q1006 NOSIG


Station Type Date Time Source
ZWWW Decoded METAR 2021/07/26 16:00 UTC NOAA

Urum-Qi / Diwopu, China (ZWWW) 43-54N 087-28E
Jul 26, 2021 - 12:00 PM EDT / 2021.07.26 1600 UTC
Wind: from the SSW (200 degrees) at 7 MPH (6 KT) (direction variable):0
Visibility: greater than 7 mile(s):0
Temperature: 87 F (31 C)
Dew Point: 42 F (6 C)
Relative Humidity: 20%
Pressure (altimeter): 29.71 in. Hg (1006 hPa)
ob: ZWWW 261600Z 20003MPS 160V220 CAVOK 31/06 Q1006 NOSIG
cycle: 16

Station Type Date Time Source
ZWWW TAF 2021/07/26 18:03 UTC NOAA

TAF ZWWW 261502Z 2618/2718 18004MPS CAVOK TX37/2709Z TN27/2623Z
BECMG 2702/2703 36004MPS
BECMG 2713/2714 18004MPS

Example: see airport list